Time;durP1;ratioP1;P1;durP2;ratioP2;P2;SDS_P1;SDS_P2;PMS_P1;PMS_P2;Temp;Humidity;BMP_temperature;BMP_pressure;BME280_temperature;BME280_humidity;BME280_pressure;Samples;Min_cycle;Max_cycle;Signal;HPM_P1;HPM_P2
2021/03/22 00:01:58;;;;;;;19.13;4.60;;;7.30;78.50;;;;;;5096506;28;20525;-71
2021/03/22 00:04:24;;;;;;;21.03;4.33;;;7.30;78.70;;;;;;5096586;28;20444;-71
2021/03/22 00:06:50;;;;;;;10.23;3.53;;;7.30;78.70;;;;;;5096374;28;20884;-71
2021/03/22 00:09:17;;;;;;;11.70;3.47;;;7.30;78.70;;;;;;5096402;28;20838;-71
2021/03/22 00:11:43;;;;;;;14.13;3.70;;;7.30;78.20;;;;;;5096281;28;20463;-71
2021/03/22 00:14:09;;;;;;;16.97;4.10;;;7.30;78.40;;;;;;5096326;28;20443;-71
2021/03/22 00:16:35;;;;;;;17.23;3.17;;;7.20;78.70;;;;;;5096308;28;20454;-71
2021/03/22 00:19:02;;;;;;;16.57;3.20;;;7.20;78.90;;;;;;5096309;28;20462;-71
2021/03/22 00:21:28;;;;;;;16.47;4.00;;;7.20;78.90;;;;;;5096222;28;20513;-70
2021/03/22 00:23:55;;;;;;;20.03;4.43;;;7.20;78.70;;;;;;5096133;28;20440;-70
2021/03/22 00:26:21;;;;;;;23.93;4.53;;;7.20;78.60;;;;;;5096116;28;20472;-71
2021/03/22 00:28:47;;;;;;;16.30;4.23;;;7.20;78.90;;;;;;5096001;28;20471;-70
2021/03/22 00:31:15;;;;;;;17.80;4.60;;;7.20;78.90;;;;;;5096600;28;20826;-71
2021/03/22 00:33:42;;;;;;;23.97;4.00;;;7.20;79.10;;;;;;5095660;28;20439;-71
2021/03/22 00:36:10;;;;;;;18.80;4.33;;;7.20;79.30;;;;;;5095961;28;20817;-70
2021/03/22 00:38:36;;;;;;;20.33;3.50;;;7.20;79.40;;;;;;5095862;28;20455;-71
2021/03/22 00:41:03;;;;;;;17.50;3.60;;;7.20;79.50;;;;;;5095503;28;20973;-71
2021/03/22 00:43:30;;;;;;;29.60;4.83;;;7.20;79.40;;;;;;5095802;28;20432;-71
2021/03/22 00:45:59;;;;;;;12.63;3.10;;;7.20;79.60;;;;;;5095732;28;20447;-71
2021/03/22 00:48:26;;;;;;;14.47;4.03;;;7.20;79.60;;;;;;5094368;28;20455;-71
2021/03/22 00:50:53;;;;;;;17.70;4.00;;;7.20;80.00;;;;;;5095577;28;20830;-71
2021/03/22 00:53:21;;;;;;;21.50;4.60;;;7.10;80.10;;;;;;5095691;28;20455;-71
2021/03/22 00:55:47;;;;;;;14.70;4.40;;;7.10;80.40;;;;;;5095885;28;20792;-70
2021/03/22 00:58:14;;;;;;;13.33;3.17;;;7.20;80.40;;;;;;5095496;28;20444;-71
2021/03/22 01:00:42;;;;;;;14.33;3.50;;;7.10;80.60;;;;;;5095052;28;20436;-71
2021/03/22 01:03:13;;;;;;;17.23;3.50;;;7.10;80.90;;;;;;5095403;28;20448;-71
2021/03/22 01:05:39;;;;;;;18.40;3.80;;;7.20;81.10;;;;;;5094973;28;20947;-71
2021/03/22 01:08:06;;;;;;;16.77;3.50;;;7.10;81.20;;;;;;5095912;28;20428;-71
2021/03/22 01:10:37;;;;;;;18.80;3.63;;;7.10;81.30;;;;;;5094802;28;20487;-71
2021/03/22 01:13:06;;;;;;;13.10;2.90;;;7.10;81.60;;;;;;5094993;28;20920;-71
2021/03/22 01:15:32;;;;;;;18.20;2.97;;;7.10;81.40;;;;;;5095773;28;20529;-71
2021/03/22 01:17:59;;;;;;;17.60;4.03;;;7.10;81.60;;;;;;5095079;28;20497;-71
2021/03/22 01:20:31;;;;;;;14.13;3.50;;;7.10;81.90;;;;;;5095067;28;20440;-71
2021/03/22 01:22:57;;;;;;;23.63;3.00;;;7.20;82.10;;;;;;5095096;28;20432;-71
2021/03/22 01:25:24;;;;;;;19.13;4.50;;;7.20;82.10;;;;;;5094665;28;20451;-71
2021/03/22 01:27:51;;;;;;;25.97;5.20;;;7.10;82.70;;;;;;5094967;28;20428;-71
2021/03/22 01:30:20;;;;;;;20.30;4.00;;;7.10;83.40;;;;;;5094534;28;21003;-71
2021/03/22 01:32:47;;;;;;;15.33;3.73;;;7.10;83.50;;;;;;5094826;28;20471;-71
2021/03/22 01:35:14;;;;;;;28.03;3.80;;;7.10;83.30;;;;;;5094798;28;20444;-71
2021/03/22 01:37:40;;;;;;;13.40;4.60;;;7.00;83.50;;;;;;5094707;28;20447;-71
2021/03/22 01:40:17;;;;;;;17.57;4.10;;;7.00;84.00;;;;;;5094406;28;20493;-71
2021/03/22 01:42:56;;;;;;;24.70;5.70;;;7.00;84.10;;;;;;5094601;28;20459;-71
2021/03/22 01:45:22;;;;;;;19.50;5.13;;;6.90;84.10;;;;;;5094655;28;20423;-71
2021/03/22 01:47:49;;;;;;;21.20;4.23;;;6.80;84.40;;;;;;5095139;28;20459;-70
2021/03/22 01:50:19;;;;;;;28.10;3.77;;;6.70;84.70;;;;;;5095460;28;20476;-71
2021/03/22 01:52:49;;;;;;;20.83;5.00;;;6.70;84.80;;;;;;5094720;28;20992;-70
2021/03/22 01:55:19;;;;;;;18.63;4.37;;;6.60;85.00;;;;;;5094345;28;20493;-71
2021/03/22 01:57:46;;;;;;;19.60;3.97;;;6.60;85.40;;;;;;5094418;28;20483;-70
2021/03/22 02:00:26;;;;;;;22.90;4.37;;;6.50;85.20;;;;;;5093664;28;20534;-71
2021/03/22 02:02:56;;;;;;;20.43;3.67;;;6.40;85.40;;;;;;5094346;28;20467;-71
2021/03/22 02:05:26;;;;;;;19.20;4.50;;;6.40;86.00;;;;;;5094201;28;20503;-70
2021/03/22 02:07:57;;;;;;;11.97;3.87;;;6.40;86.60;;;;;;5094774;28;20435;-71
2021/03/22 02:10:23;;;;;;;29.03;3.67;;;6.20;86.70;;;;;;5093811;28;20986;-71
2021/03/22 02:12:49;;;;;;;19.30;4.50;;;6.20;87.10;;;;;;5093961;28;20517;-71
2021/03/22 02:15:17;;;;;;;13.57;4.10;;;6.30;87.30;;;;;;5094137;28;20451;-71
2021/03/22 02:17:51;;;;;;;18.70;4.60;;;6.30;87.50;;;;;;5093995;28;20443;-71
2021/03/22 02:20:52;;;;;;;19.93;5.10;;;6.30;87.50;;;;;;5094343;28;20424;-70
2021/03/22 02:24:05;;;;;;;18.73;5.80;;;6.20;87.50;;;;;;5093653;28;20907;-70
2021/03/22 02:27:16;;;;;;;18.47;3.77;;;6.20;88.00;;;;;;5094201;28;20431;-70
2021/03/22 02:29:55;;;;;;;20.73;4.63;;;6.10;88.10;;;;;;5031393;28;20477;-70
2021/03/22 02:32:43;;;;;;;11.40;3.53;;;6.10;89.00;;;;;;5084246;28;20464;-70
2021/03/22 02:35:16;;;;;;;20.30;4.60;;;6.10;88.80;;;;;;5093839;28;20428;-70
2021/03/22 02:37:51;;;;;;;17.20;5.00;;;6.10;88.90;;;;;;5093846;28;20428;-70
2021/03/22 02:40:30;;;;;;;15.03;3.83;;;6.10;88.80;;;;;;5093808;28;20484;-71
2021/03/22 02:42:57;;;;;;;20.40;4.90;;;6.20;89.00;;;;;;5093709;28;20470;-70
2021/03/22 02:45:26;;;;;;;13.37;3.97;;;6.10;89.70;;;;;;5093658;28;20439;-70
2021/03/22 02:47:53;;;;;;;22.10;4.30;;;6.10;89.30;;;;;;5093617;28;20446;-70
2021/03/22 02:50:24;;;;;;;19.50;4.30;;;6.10;89.60;;;;;;5093552;28;20476;-70
2021/03/22 02:53:34;;;;;;;14.63;4.57;;;6.10;89.80;;;;;;5093545;28;20463;-70
2021/03/22 02:56:07;;;;;;;22.43;4.53;;;6.00;90.00;;;;;;5091241;28;20842;-70
2021/03/22 02:58:44;;;;;;;18.30;3.70;;;5.90;90.10;;;;;;5093396;28;20432;-71
2021/03/22 03:01:15;;;;;;;17.73;4.73;;;5.90;90.20;;;;;;5093478;28;20463;-71
2021/03/22 03:03:44;;;;;;;11.40;3.67;;;5.90;90.40;;;;;;5093209;28;20953;-70
2021/03/22 03:06:11;;;;;;;16.47;3.80;;;5.90;90.50;;;;;;5093223;28;20949;-70
2021/03/22 03:08:40;;;;;;;12.40;3.83;;;5.80;90.60;;;;;;5093363;28;20451;-70
2021/03/22 03:11:06;;;;;;;23.67;5.70;;;5.90;90.80;;;;;;5094130;28;20463;-70
2021/03/22 03:13:33;;;;;;;16.83;4.50;;;6.00;90.90;;;;;;5097939;28;20458;-70
2021/03/22 03:16:00;;;;;;;16.40;5.47;;;6.00;91.00;;;;;;5097180;28;20443;-70
2021/03/22 03:18:26;;;;;;;13.47;4.50;;;6.00;91.10;;;;;;5097705;28;20443;-70
2021/03/22 03:20:52;;;;;;;17.60;4.50;;;6.00;91.30;;;;;;5097494;28;20460;-70
2021/03/22 03:23:19;;;;;;;11.50;4.27;;;6.00;91.60;;;;;;5097943;28;20447;-70
2021/03/22 03:25:46;;;;;;;19.83;5.50;;;6.00;91.70;;;;;;5097334;28;20444;-70
2021/03/22 03:28:12;;;;;;;33.40;6.20;;;5.90;91.80;;;;;;5096910;28;20427;-70
2021/03/22 03:30:40;;;;;;;22.43;7.77;;;5.90;91.90;;;;;;5097081;28;20491;-70
2021/03/22 03:33:09;;;;;;;14.87;5.90;;;6.00;92.00;;;;;;5097168;28;20454;-70
2021/03/22 03:35:37;;;;;;;19.93;6.00;;;6.00;91.90;;;;;;5097141;28;20447;-70
2021/03/22 03:38:04;;;;;;;17.77;6.33;;;6.00;91.70;;;;;;5097056;28;20443;-70
2021/03/22 03:40:33;;;;;;;21.43;6.33;;;6.00;91.80;;;;;;5096900;28;20443;-71
2021/03/22 03:43:00;;;;;;;23.40;6.33;;;6.10;91.70;;;;;;5096927;28;20446;-70
2021/03/22 03:45:29;;;;;;;24.80;6.83;;;6.00;91.60;;;;;;5096918;28;20447;-70
2021/03/22 03:47:55;;;;;;;20.83;6.27;;;6.00;91.50;;;;;;5096901;28;20871;-70
2021/03/22 03:50:24;;;;;;;24.90;6.00;;;5.90;91.40;;;;;;5096728;28;20483;-70
2021/03/22 03:52:51;;;;;;;20.37;5.90;;;5.90;91.40;;;;;;5096772;28;20821;-70
2021/03/22 03:55:20;;;;;;;28.37;7.00;;;5.90;91.40;;;;;;5096702;28;20446;-70
2021/03/22 03:57:47;;;;;;;25.63;6.00;;;5.90;91.50;;;;;;5096631;28;20796;-70
2021/03/22 04:00:20;;;;;;;21.50;6.40;;;5.80;91.40;;;;;;5096997;28;20440;-70
2021/03/22 04:02:46;;;;;;;18.37;4.43;;;5.80;91.30;;;;;;5096771;28;20459;-70
2021/03/22 04:05:13;;;;;;;18.33;4.43;;;5.80;91.30;;;;;;5096394;28;20445;-70
2021/03/22 04:07:39;;;;;;;26.87;6.10;;;5.90;91.30;;;;;;5097054;28;20443;-70
2021/03/22 04:10:06;;;;;;;20.87;4.30;;;5.90;91.10;;;;;;5096361;28;20479;-70
2021/03/22 04:12:32;;;;;;;19.47;5.70;;;5.90;91.00;;;;;;5096345;28;20470;-70
2021/03/22 04:14:59;;;;;;;15.17;4.40;;;5.90;90.90;;;;;;5096349;28;20451;-70
2021/03/22 04:17:26;;;;;;;10.33;3.77;;;5.80;90.80;;;;;;5096288;28;20443;-70
2021/03/22 04:19:52;;;;;;;14.80;4.00;;;5.80;90.90;;;;;;5096221;28;20440;-70
2021/03/22 04:22:18;;;;;;;16.90;5.23;;;5.90;90.90;;;;;;5096549;28;20471;-70
2021/03/22 04:24:44;;;;;;;11.90;3.60;;;5.90;90.80;;;;;;5096165;28;20451;-70
2021/03/22 04:27:11;;;;;;;19.10;4.20;;;5.90;90.60;;;;;;5096095;28;20942;-70
2021/03/22 04:29:37;;;;;;;33.53;5.40;;;5.80;90.80;;;;;;5095990;28;20475;-70
2021/03/22 04:32:05;;;;;;;19.57;4.70;;;5.60;91.10;;;;;;5095666;28;20460;-70
2021/03/22 04:34:31;;;;;;;23.50;5.13;;;5.60;91.50;;;;;;5095929;28;20444;-70
2021/03/22 04:36:57;;;;;;;25.20;5.83;;;5.50;91.90;;;;;;5095914;28;20444;-70
2021/03/22 04:39:23;;;;;;;14.70;5.70;;;5.50;92.40;;;;;;5095587;28;20960;-70
2021/03/22 04:41:50;;;;;;;18.40;4.93;;;5.50;92.70;;;;;;5096957;28;20470;-70
2021/03/22 04:44:16;;;;;;;15.00;5.90;;;5.50;93.10;;;;;;5096365;28;20443;-70
2021/03/22 04:46:42;;;;;;;15.97;5.37;;;5.50;93.40;;;;;;5095705;28;20886;-70
2021/03/22 04:49:10;;;;;;;19.63;6.70;;;5.40;93.60;;;;;;5095663;28;20479;-70
2021/03/22 04:51:36;;;;;;;14.27;5.43;;;5.30;94.00;;;;;;5095714;28;20464;-70
2021/03/22 04:54:02;;;;;;;19.17;6.37;;;5.40;94.30;;;;;;5095563;28;20477;-70
2021/03/22 04:56:28;;;;;;;18.00;6.40;;;5.30;94.50;;;;;;5095620;28;20439;-70
2021/03/22 04:58:55;;;;;;;17.57;5.93;;;5.30;94.80;;;;;;5095524;28;20452;-70
2021/03/22 05:01:21;;;;;;;20.50;6.47;;;5.40;94.90;;;;;;5095405;28;20881;-70
2021/03/22 05:03:47;;;;;;;24.23;7.00;;;5.30;94.90;;;;;;5095482;28;20446;-70
2021/03/22 05:06:15;;;;;;;19.90;7.07;;;5.30;95.10;;;;;;5095156;28;20452;-70
2021/03/22 05:08:41;;;;;;;26.90;7.70;;;5.30;95.30;;;;;;5095339;28;20854;-70
2021/03/22 05:11:08;;;;;;;30.77;7.77;;;5.30;95.40;;;;;;5095416;28;20488;-70
2021/03/22 05:13:34;;;;;;;27.80;6.97;;;5.30;95.40;;;;;;5095221;28;20455;-70
2021/03/22 05:16:00;;;;;;;18.83;7.00;;;5.20;95.60;;;;;;5095202;28;20681;-70
2021/03/22 05:18:30;;;;;;;15.77;7.40;;;5.20;95.90;;;;;;5095138;28;20444;-70
2021/03/22 05:21:01;;;;;;;20.97;6.60;;;5.30;96.00;;;;;;5095010;28;20459;-70
2021/03/22 05:23:28;;;;;;;17.63;7.13;;;5.40;95.90;;;;;;5094774;28;20982;-70
2021/03/22 05:25:56;;;;;;;20.97;6.50;;;5.40;95.80;;;;;;5095026;28;20451;-70
2021/03/22 05:28:24;;;;;;;19.17;8.40;;;5.50;95.70;;;;;;5094971;28;20444;-72
2021/03/22 05:30:50;;;;;;;17.80;7.30;;;5.50;95.60;;;;;;5094753;28;20483;-72
2021/03/22 05:33:18;;;;;;;23.10;7.73;;;5.50;95.40;;;;;;5094523;28;20493;-72
2021/03/22 05:35:47;;;;;;;17.57;6.63;;;5.60;95.30;;;;;;5094374;28;20439;-72
2021/03/22 05:38:14;;;;;;;25.87;7.33;;;5.60;95.20;;;;;;5094877;28;20444;-72
2021/03/22 05:40:44;;;;;;;18.87;8.27;;;5.70;95.00;;;;;;5094335;28;20440;-72
2021/03/22 05:43:24;;;;;;;24.80;7.70;;;5.80;94.70;;;;;;5094672;28;20486;-72
2021/03/22 05:46:03;;;;;;;22.33;6.90;;;5.80;94.40;;;;;;5094398;28;20832;-72
2021/03/22 05:48:45;;;;;;;20.20;6.70;;;5.80;94.30;;;;;;5094610;28;20428;-72
2021/03/22 05:51:29;;;;;;;19.13;7.43;;;5.80;94.20;;;;;;5094387;28;20860;-72
2021/03/22 05:54:04;;;;;;;19.30;7.20;;;5.80;94.20;;;;;;5094524;28;20428;-72
2021/03/22 05:56:40;;;;;;;19.30;6.77;;;5.80;94.10;;;;;;5094399;28;20839;-72
2021/03/22 05:59:22;;;;;;;23.57;8.00;;;5.80;94.00;;;;;;5094386;28;20794;-71
2021/03/22 06:01:53;;;;;;;21.77;10.03;;;5.80;93.90;;;;;;5094262;28;20874;-72
2021/03/22 06:04:24;;;;;;;16.97;8.37;;;5.80;94.20;;;;;;5094296;28;20424;-72
2021/03/22 06:06:51;;;;;;;20.37;8.57;;;5.70;94.30;;;;;;5093920;28;20535;-72
2021/03/22 06:09:30;;;;;;;25.03;8.77;;;5.70;94.60;;;;;;5094006;28;20479;-72
2021/03/22 06:12:05;;;;;;;22.47;7.67;;;5.70;94.80;;;;;;5093963;28;20832;-72
2021/03/22 06:14:39;;;;;;;24.90;8.93;;;5.70;94.80;;;;;;5093731;28;20960;-72
2021/03/22 06:17:14;;;;;;;25.60;7.93;;;5.70;94.80;;;;;;5094060;28;20431;-72
2021/03/22 06:19:49;;;;;;;23.13;8.30;;;5.70;94.80;;;;;;5094070;28;20419;-72
2021/03/22 06:22:22;;;;;;;21.00;8.57;;;5.80;95.00;;;;;;5093795;28;20554;-71
2021/03/22 06:24:48;;;;;;;30.57;10.00;;;5.70;94.90;;;;;;5093969;28;20480;-71
2021/03/22 06:27:16;;;;;;;22.97;10.67;;;5.80;95.00;;;;;;5093823;28;20444;-71
2021/03/22 06:29:43;;;;;;;25.00;9.10;;;5.90;94.90;;;;;;5093492;28;20969;-71
2021/03/22 06:32:15;;;;;;;22.50;8.00;;;5.90;94.80;;;;;;5093754;28;20467;-71
2021/03/22 06:34:48;;;;;;;35.20;10.33;;;6.00;94.80;;;;;;5093788;28;20434;-71
2021/03/22 06:37:18;;;;;;;24.37;8.70;;;6.00;94.80;;;;;;5093511;28;20898;-71
2021/03/22 06:39:45;;;;;;;26.20;10.00;;;6.10;94.80;;;;;;5093753;28;20439;-71
2021/03/22 06:42:21;;;;;;;26.03;8.30;;;6.20;94.60;;;;;;5093699;28;20467;-71
2021/03/22 06:44:48;;;;;;;27.73;9.17;;;6.20;94.60;;;;;;5093324;28;20434;-71
2021/03/22 06:47:32;;;;;;;15.13;7.77;;;6.20;94.60;;;;;;5093287;28;20439;-70
2021/03/22 06:50:26;;;;;;;20.17;7.83;;;6.30;94.50;;;;;;5093217;28;20470;-70
2021/03/22 06:52:54;;;;;;;24.60;8.20;;;6.30;94.40;;;;;;5093331;28;20459;-71
2021/03/22 06:55:32;;;;;;;27.00;9.20;;;6.30;94.20;;;;;;5093322;28;20473;-70
2021/03/22 06:58:00;;;;;;;19.20;8.23;;;6.40;94.10;;;;;;5093366;28;20518;-71
2021/03/22 07:00:31;;;;;;;30.67;9.43;;;6.40;93.80;;;;;;5093240;28;20440;-71
2021/03/22 07:03:01;;;;;;;18.00;8.30;;;6.50;93.90;;;;;;5093215;28;20435;-71
2021/03/22 07:05:38;;;;;;;23.73;8.47;;;6.70;93.50;;;;;;5093107;28;20513;-71
2021/03/22 07:08:10;;;;;;;21.33;8.30;;;6.70;92.90;;;;;;5093039;28;20438;-71
2021/03/22 07:10:43;;;;;;;21.57;8.43;;;6.70;92.80;;;;;;5092985;28;20460;-71
2021/03/22 07:13:25;;;;;;;21.27;9.23;;;6.70;92.90;;;;;;5093064;28;20424;-70
2021/03/22 07:15:57;;;;;;;18.67;8.30;;;6.70;93.00;;;;;;5093124;28;20424;-71
2021/03/22 07:18:33;;;;;;;18.57;8.73;;;6.80;93.10;;;;;;5093075;28;20890;-70
2021/03/22 07:21:16;;;;;;;22.03;8.10;;;6.80;93.00;;;;;;5092990;28;20463;-70
2021/03/22 07:24:05;;;;;;;18.47;8.13;;;6.90;93.10;;;;;;5093356;28;20447;-70
2021/03/22 07:26:48;;;;;;;22.27;8.50;;;7.00;92.80;;;;;;5093056;28;20428;-70
2021/03/22 07:29:47;;;;;;;20.57;8.13;;;7.10;92.40;;;;;;5093009;28;20518;-70
2021/03/22 07:32:47;;;;;;;22.60;7.83;;;7.10;92.30;;;;;;5093314;28;20509;-70
2021/03/22 07:35:48;;;;;;;22.30;9.30;;;7.00;92.30;;;;;;5092947;28;20427;-70
2021/03/22 07:38:28;;;;;;;24.20;7.93;;;7.10;92.20;;;;;;5092908;28;20434;-70
2021/03/22 07:41:06;;;;;;;25.23;8.50;;;7.10;92.20;;;;;;5092818;28;20462;-70
2021/03/22 07:43:50;;;;;;;29.57;8.90;;;7.20;92.10;;;;;;5092825;28;20420;-70
2021/03/22 07:46:32;;;;;;;19.30;7.40;;;7.30;91.80;;;;;;5093133;28;20437;-70
2021/03/22 07:49:17;;;;;;;16.60;6.67;;;7.40;91.70;;;;;;5092836;28;20423;-70
2021/03/22 07:51:59;;;;;;;21.70;7.50;;;7.50;91.50;;;;;;5092717;28;20466;-70
2021/03/22 07:54:40;;;;;;;19.20;7.50;;;7.60;91.20;;;;;;5093080;28;20443;-70
2021/03/22 07:57:21;;;;;;;14.83;6.40;;;7.70;90.80;;;;;;5094224;28;20428;-70
2021/03/22 08:00:03;;;;;;;13.73;6.37;;;7.90;90.40;;;;;;5096463;28;20426;-70
2021/03/22 08:02:54;;;;;;;12.73;6.37;;;8.00;89.70;;;;;;5097108;28;20467;-70
2021/03/22 08:05:32;;;;;;;13.93;6.20;;;8.00;89.50;;;;;;5097856;28;20520;-70
2021/03/22 08:08:01;;;;;;;12.00;5.40;;;8.10;89.00;;;;;;5096555;28;20423;-71
2021/03/22 08:10:40;;;;;;;13.20;5.80;;;8.20;88.00;;;;;;5096111;28;20969;-71
2021/03/22 08:13:46;;;;;;;13.33;5.83;;;8.30;87.90;;;;;;5096116;28;20434;-71
2021/03/22 08:16:43;;;;;;;16.17;5.07;;;8.40;86.60;;;;;;5085208;28;20459;-71
2021/03/22 08:19:20;;;;;;;13.33;4.70;;;8.30;85.60;;;;;;5096007;28;20423;-71
2021/03/22 08:21:54;;;;;;;14.90;5.73;;;8.30;85.60;;;;;;5095824;28;20463;-71
2021/03/22 08:24:32;;;;;;;11.67;4.50;;;8.40;87.30;;;;;;5096186;28;20514;-71
2021/03/22 08:27:06;;;;;;;9.83;4.50;;;8.40;87.20;;;;;;5095858;28;20432;-70
2021/03/22 08:29:45;;;;;;;11.67;5.10;;;8.50;86.50;;;;;;5096374;28;20462;-71
2021/03/22 08:32:35;;;;;;;12.37;4.90;;;8.70;86.30;;;;;;5095672;28;20473;-70
2021/03/22 08:35:14;;;;;;;10.37;3.90;;;8.90;85.10;;;;;;5095712;28;20446;-71
2021/03/22 08:37:49;;;;;;;11.73;4.80;;;9.10;83.80;;;;;;5095629;28;20424;-72
2021/03/22 08:40:25;;;;;;;11.33;5.20;;;9.10;81.50;;;;;;5095590;28;20434;-71
2021/03/22 08:43:01;;;;;;;13.37;4.40;;;9.20;82.90;;;;;;5095562;28;20475;-71
2021/03/22 08:45:33;;;;;;;9.80;4.50;;;9.30;81.10;;;;;;5095032;28;20441;-71
2021/03/22 08:48:09;;;;;;;11.83;4.87;;;9.40;79.80;;;;;;5095472;28;20432;-71
2021/03/22 08:50:40;;;;;;;8.10;3.97;;;9.50;80.50;;;;;;5095194;28;20460;-71
2021/03/22 08:53:17;;;;;;;8.87;4.40;;;9.60;80.40;;;;;;5094906;28;20448;-71
2021/03/22 08:55:48;;;;;;;9.70;4.70;;;9.60;79.70;;;;;;5095601;28;20432;-71
2021/03/22 08:58:24;;;;;;;9.50;5.37;;;9.70;79.30;;;;;;5095558;28;20800;-71
2021/03/22 09:00:53;;;;;;;16.10;5.40;;;9.80;78.80;;;;;;5095521;28;20431;-71
2021/03/22 09:03:33;;;;;;;7.23;4.40;;;9.70;77.70;;;;;;5095437;28;20431;-71
2021/03/22 09:06:17;;;;;;;9.60;5.10;;;9.70;78.70;;;;;;5095280;28;20464;-71
2021/03/22 09:09:05;;;;;;;15.90;5.23;;;9.70;78.40;;;;;;5094296;28;20523;-71
2021/03/22 09:11:39;;;;;;;13.77;4.43;;;9.80;78.40;;;;;;5095379;28;20499;-72
2021/03/22 09:14:19;;;;;;;9.30;3.50;;;9.90;77.80;;;;;;5095239;28;20493;-72
2021/03/22 09:16:47;;;;;;;13.77;4.47;;;10.10;76.80;;;;;;5095479;28;20464;-72
2021/03/22 09:19:37;;;;;;;10.27;4.80;;;10.30;76.40;;;;;;5095404;28;20501;-72
2021/03/22 09:22:42;;;;;;;12.37;5.03;;;10.60;75.90;;;;;;5095404;28;20464;-72
2021/03/22 09:25:11;;;;;;;9.50;4.17;;;10.80;73.50;;;;;;5095177;28;20838;-71
2021/03/22 09:27:37;;;;;;;20.47;4.30;;;11.00;70.90;;;;;;5095246;28;20485;-71
2021/03/22 09:30:40;;;;;;;10.43;3.60;;;10.90;69.50;;;;;;5095026;28;20464;-72
2021/03/22 09:33:07;;;;;;;10.23;4.13;;;10.80;69.80;;;;;;5095065;28;20427;-71
2021/03/22 09:36:04;;;;;;;7.27;4.33;;;10.70;71.00;;;;;;5094917;28;20443;-72
2021/03/22 09:38:49;;;;;;;12.10;3.90;;;10.50;70.90;;;;;;5094696;28;20898;-71
2021/03/22 09:41:16;;;;;;;10.23;4.37;;;10.30;71.90;;;;;;5095116;28;20456;-72
2021/03/22 09:43:49;;;;;;;8.00;3.30;;;10.40;73.80;;;;;;5094956;28;20430;-70
2021/03/22 09:46:34;;;;;;;12.07;3.80;;;10.70;73.70;;;;;;5094846;28;20428;-70
2021/03/22 09:49:23;;;;;;;9.57;3.43;;;11.00;71.90;;;;;;5085422;28;20451;-69
2021/03/22 09:51:54;;;;;;;10.47;3.50;;;11.40;69.60;;;;;;5094688;28;20542;-69
2021/03/22 09:54:38;;;;;;;15.00;3.23;;;11.60;68.70;;;;;;5094827;28;20428;-70
2021/03/22 09:57:40;;;;;;;8.53;3.47;;;11.90;67.20;;;;;;5094550;28;20424;-69
2021/03/22 10:00:23;;;;;;;4.60;2.40;;;12.10;65.40;;;;;;5094545;28;20411;-70
2021/03/22 10:02:51;;;;;;;5.87;2.13;;;12.10;64.10;;;;;;5094313;28;20524;-70
2021/03/22 10:05:20;;;;;;;4.10;2.20;;;12.00;62.80;;;;;;5093981;28;20459;-70
2021/03/22 10:08:04;;;;;;;5.20;2.37;;;12.00;61.80;;;;;;5094189;28;20895;-70
2021/03/22 10:10:35;;;;;;;5.00;2.77;;;11.90;62.00;;;;;;5094518;28;20471;-70
2021/03/22 10:13:07;;;;;;;3.53;1.87;;;11.80;62.60;;;;;;5094287;28;20424;-70
2021/03/22 10:15:46;;;;;;;6.47;2.60;;;11.80;63.30;;;;;;5095069;28;20750;-70
2021/03/22 10:18:22;;;;;;;3.27;2.10;;;11.70;62.70;;;;;;5093805;28;20481;-70
2021/03/22 10:20:51;;;;;;;10.57;3.40;;;11.60;63.50;;;;;;5093992;28;20428;-70
2021/03/22 10:23:26;;;;;;;6.30;3.20;;;11.70;64.70;;;;;;5094111;28;20479;-70
2021/03/22 10:26:04;;;;;;;6.10;2.47;;;11.70;65.30;;;;;;5094082;28;20440;-70
2021/03/22 10:28:31;;;;;;;7.60;3.10;;;11.60;64.50;;;;;;5093717;28;20917;-71
2021/03/22 10:31:03;;;;;;;6.37;3.40;;;11.40;64.60;;;;;;5093762;28;20483;-69
2021/03/22 10:33:31;;;;;;;6.87;3.20;;;11.20;67.10;;;;;;5093939;28;20460;-70
2021/03/22 10:36:00;;;;;;;5.47;3.30;;;11.10;67.90;;;;;;5094184;28;20440;-69
2021/03/22 10:38:30;;;;;;;4.03;2.93;;;11.00;67.90;;;;;;5093889;28;20431;-70
2021/03/22 10:40:59;;;;;;;5.03;3.77;;;11.00;66.70;;;;;;5093844;28;20820;-70
2021/03/22 10:43:29;;;;;;;6.33;3.20;;;10.90;67.40;;;;;;5093980;28;20444;-69
2021/03/22 10:45:58;;;;;;;9.77;3.53;;;10.90;68.40;;;;;;5093620;28;20793;-70
2021/03/22 10:48:28;;;;;;;5.87;2.40;;;10.80;69.50;;;;;;5093298;28;20477;-70
2021/03/22 10:51:08;;;;;;;5.47;2.43;;;10.80;66.50;;;;;;5093637;28;20487;-70
2021/03/22 10:53:34;;;;;;;10.40;3.50;;;10.70;66.30;;;;;;5093772;28;20435;-70
2021/03/22 10:56:22;;;;;;;6.87;3.87;;;10.60;67.50;;;;;;5093933;28;20504;-72
2021/03/22 10:58:49;;;;;;;7.47;3.83;;;10.50;70.40;;;;;;5093735;28;20432;-72
2021/03/22 11:01:17;;;;;;;9.53;3.93;;;10.40;72.00;;;;;;5093705;28;20456;-72
2021/03/22 11:03:48;;;;;;;7.00;4.10;;;10.30;73.30;;;;;;5093425;28;20539;-72
2021/03/22 11:06:31;;;;;;;9.27;4.10;;;10.00;73.90;;;;;;5093175;28;20934;-72
2021/03/22 11:09:01;;;;;;;9.07;4.03;;;9.80;75.40;;;;;;5094563;28;20451;-72
2021/03/22 11:11:31;;;;;;;13.10;4.40;;;9.80;76.70;;;;;;5094350;28;20483;-72
2021/03/22 11:14:01;;;;;;;9.97;3.73;;;9.80;77.20;;;;;;5094457;28;20429;-72
2021/03/22 11:16:31;;;;;;;10.67;3.67;;;9.80;76.90;;;;;;5093977;28;20427;-72
2021/03/22 11:18:59;;;;;;;7.33;3.77;;;9.70;77.50;;;;;;5094232;28;20442;-72
2021/03/22 11:21:28;;;;;;;7.77;3.70;;;9.70;77.30;;;;;;5094013;28;20467;-72
2021/03/22 11:23:56;;;;;;;7.90;3.77;;;9.80;77.00;;;;;;5094184;28;20440;-72
2021/03/22 11:26:25;;;;;;;8.03;3.40;;;9.90;74.40;;;;;;5093867;28;20431;-72
2021/03/22 11:29:13;;;;;;;7.70;4.10;;;10.10;73.40;;;;;;5093873;28;20448;-72
2021/03/22 11:31:42;;;;;;;6.60;2.70;;;10.30;72.80;;;;;;5093626;28;20858;-72
2021/03/22 11:34:16;;;;;;;7.17;3.40;;;10.50;70.20;;;;;;5098748;28;20443;-72
2021/03/22 11:36:44;;;;;;;5.33;2.50;;;10.70;69.00;;;;;;5098395;28;20440;-72
2021/03/22 11:39:21;;;;;;;7.47;3.43;;;10.80;68.90;;;;;;5097428;28;20471;-72
2021/03/22 11:42:04;;;;;;;5.80;3.20;;;10.80;68.70;;;;;;5097469;28;20969;-72
2021/03/22 11:44:34;;;;;;;7.80;3.10;;;10.70;69.90;;;;;;5097702;28;20428;-72
2021/03/22 11:47:26;;;;;;;5.33;2.87;;;10.60;69.20;;;;;;5097321;28;20607;-71
2021/03/22 11:49:52;;;;;;;7.67;2.70;;;10.50;70.80;;;;;;5097743;28;20463;-72
2021/03/22 11:52:21;;;;;;;3.80;2.57;;;10.40;72.00;;;;;;5097517;28;20464;-72
2021/03/22 11:54:50;;;;;;;7.80;3.40;;;10.50;72.10;;;;;;5098330;28;20446;-72
2021/03/22 11:57:19;;;;;;;4.27;2.90;;;10.50;71.20;;;;;;5097115;28;20939;-72
2021/03/22 11:59:51;;;;;;;5.20;2.77;;;10.40;71.70;;;;;;5097587;28;20810;-72
2021/03/22 12:02:27;;;;;;;9.43;3.23;;;10.40;71.70;;;;;;5096842;28;20463;-72
2021/03/22 12:04:55;;;;;;;5.43;2.77;;;10.60;70.50;;;;;;5097388;28;20428;-72
2021/03/22 12:07:47;;;;;;;7.63;2.97;;;10.50;70.90;;;;;;5097281;28;20512;-72
2021/03/22 12:10:19;;;;;;;6.60;3.03;;;10.50;72.60;;;;;;5083067;28;20562;-72
2021/03/22 12:12:46;;;;;;;9.37;3.17;;;10.50;71.30;;;;;;5096870;28;20988;-72
2021/03/22 12:15:15;;;;;;;6.80;3.30;;;10.50;71.50;;;;;;5097721;28;20435;-73
2021/03/22 12:17:41;;;;;;;6.40;2.97;;;10.40;71.10;;;;;;5096955;28;20440;-72
2021/03/22 12:20:18;;;;;;;3.27;2.43;;;10.50;72.30;;;;;;5097258;28;20439;-72
2021/03/22 12:22:44;;;;;;;4.77;3.00;;;10.60;70.20;;;;;;5096780;28;20466;-72
2021/03/22 12:25:15;;;;;;;6.70;2.83;;;10.60;69.20;;;;;;5096650;28;20432;-72
2021/03/22 12:27:41;;;;;;;3.77;2.90;;;10.60;69.50;;;;;;5096570;28;20450;-72
2021/03/22 12:30:08;;;;;;;6.03;3.23;;;10.60;70.00;;;;;;5096656;28;20881;-72
2021/03/22 12:32:35;;;;;;;5.30;3.00;;;10.70;69.10;;;;;;5097774;28;20467;-72
2021/03/22 12:35:02;;;;;;;8.30;4.77;;;10.80;68.30;;;;;;5096791;28;20787;-73
2021/03/22 12:37:30;;;;;;;14.07;7.57;;;10.90;68.10;;;;;;5097756;28;20448;-72
2021/03/22 12:39:57;;;;;;;8.60;6.50;;;11.00;67.90;;;;;;5097722;28;20493;-73
2021/03/22 12:42:26;;;;;;;10.50;8.50;;;11.10;67.60;;;;;;5096556;28;20824;-72
2021/03/22 12:44:52;;;;;;;4.83;2.97;;;11.20;66.80;;;;;;5096348;28;20960;-73
2021/03/22 12:47:20;;;;;;;6.87;3.50;;;11.10;66.20;;;;;;5097379;28;20440;-72
2021/03/22 12:49:47;;;;;;;6.90;6.20;;;10.90;66.40;;;;;;5097049;28;20443;-72
2021/03/22 12:52:13;;;;;;;8.83;7.40;;;10.70;66.60;;;;;;5098460;28;20525;-72
2021/03/22 12:54:40;;;;;;;9.40;5.13;;;10.60;67.30;;;;;;5097484;28;20501;-72
2021/03/22 12:57:07;;;;;;;5.70;4.57;;;10.50;67.30;;;;;;5097831;28;20448;-72
2021/03/22 12:59:35;;;;;;;6.03;3.30;;;10.40;67.70;;;;;;5097319;28;20447;-72
2021/03/22 13:02:03;;;;;;;6.63;3.67;;;10.10;68.20;;;;;;5097590;28;20463;-72
2021/03/22 13:04:31;;;;;;;4.70;2.77;;;10.10;70.10;;;;;;5098397;28;20501;-72
2021/03/22 13:06:58;;;;;;;7.43;5.20;;;10.00;69.80;;;;;;5098551;28;20521;-72
2021/03/22 13:09:24;;;;;;;9.10;8.20;;;10.10;70.50;;;;;;5097509;28;20443;-72
2021/03/22 13:11:50;;;;;;;9.00;8.10;;;10.00;69.60;;;;;;5098265;28;20487;-72
2021/03/22 13:14:17;;;;;;;6.30;4.70;;;10.10;69.80;;;;;;5097538;28;20432;-72